sensor_id;sensor_type;location;lat;lon;timestamp;temperature;humidity
64396;DHT22;50717;53.360;6.290;2022-12-07T00:00:03;5.30;99.90
64396;DHT22;50717;53.360;6.290;2022-12-07T00:02:29;5.30;99.90
64396;DHT22;50717;53.360;6.290;2022-12-07T00:04:56;5.40;99.90
64396;DHT22;50717;53.360;6.290;2022-12-07T00:07:21;5.70;99.90
64396;DHT22;50717;53.360;6.290;2022-12-07T00:09:47;5.30;99.90
64396;DHT22;50717;53.360;6.290;2022-12-07T00:12:12;5.60;99.90
64396;DHT22;50717;53.360;6.290;2022-12-07T00:14:38;5.40;99.90
64396;DHT22;50717;53.360;6.290;2022-12-07T00:17:04;5.00;99.90
64396;DHT22;50717;53.360;6.290;2022-12-07T00:19:29;5.10;99.90
64396;DHT22;50717;53.360;6.290;2022-12-07T00:21:55;5.40;99.90
64396;DHT22;50717;53.360;6.290;2022-12-07T00:24:21;5.70;99.90
64396;DHT22;50717;53.360;6.290;2022-12-07T00:26:46;5.20;99.90
64396;DHT22;50717;53.360;6.290;2022-12-07T00:29:19;5.60;99.90
64396;DHT22;50717;53.360;6.290;2022-12-07T00:31:45;5.30;99.90
64396;DHT22;50717;53.360;6.290;2022-12-07T00:34:17;5.50;99.90
64396;DHT22;50717;53.360;6.290;2022-12-07T00:36:43;5.50;99.90
64396;DHT22;50717;53.360;6.290;2022-12-07T00:39:08;5.60;99.90
64396;DHT22;50717;53.360;6.290;2022-12-07T00:41:34;5.80;99.90
64396;DHT22;50717;53.360;6.290;2022-12-07T00:44:00;5.50;99.90
64396;DHT22;50717;53.360;6.290;2022-12-07T00:46:26;5.30;99.90
64396;DHT22;50717;53.360;6.290;2022-12-07T00:48:52;5.30;99.90
64396;DHT22;50717;53.360;6.290;2022-12-07T00:51:19;5.30;99.90
64396;DHT22;50717;53.360;6.290;2022-12-07T00:53:46;5.60;99.90
64396;DHT22;50717;53.360;6.290;2022-12-07T00:56:14;5.20;99.90
64396;DHT22;50717;53.360;6.290;2022-12-07T00:58:40;5.10;99.90
64396;DHT22;50717;53.360;6.290;2022-12-07T01:01:07;5.00;99.90
64396;DHT22;50717;53.360;6.290;2022-12-07T01:03:33;5.40;99.90
64396;DHT22;50717;53.360;6.290;2022-12-07T01:05:59;5.20;99.90
64396;DHT22;50717;53.360;6.290;2022-12-07T01:08:26;5.50;99.90
64396;DHT22;50717;53.360;6.290;2022-12-07T01:11:06;5.50;99.90
64396;DHT22;50717;53.360;6.290;2022-12-07T01:13:33;5.40;99.90
64396;DHT22;50717;53.360;6.290;2022-12-07T01:16:01;5.40;99.90
64396;DHT22;50717;53.360;6.290;2022-12-07T01:18:28;5.20;99.90
64396;DHT22;50717;53.360;6.290;2022-12-07T01:23:31;5.20;99.90
64396;DHT22;50717;53.360;6.290;2022-12-07T01:26:00;5.20;99.90
64396;DHT22;50717;53.360;6.290;2022-12-07T01:28:26;5.50;99.90
64396;DHT22;50717;53.360;6.290;2022-12-07T01:31:13;5.40;99.90
64396;DHT22;50717;53.360;6.290;2022-12-07T01:33:41;5.80;99.90
64396;DHT22;50717;53.360;6.290;2022-12-07T01:36:08;5.50;99.90
64396;DHT22;50717;53.360;6.290;2022-12-07T01:38:38;5.40;99.90
64396;DHT22;50717;53.360;6.290;2022-12-07T01:41:03;5.50;99.90
64396;DHT22;50717;53.360;6.290;2022-12-07T01:43:30;5.30;99.90
64396;DHT22;50717;53.360;6.290;2022-12-07T01:45:57;5.40;99.90
64396;DHT22;50717;53.360;6.290;2022-12-07T01:48:36;5.30;99.90
64396;DHT22;50717;53.360;6.290;2022-12-07T01:51:09;5.40;99.90
64396;DHT22;50717;53.360;6.290;2022-12-07T01:53:38;5.30;99.90
64396;DHT22;50717;53.360;6.290;2022-12-07T01:56:05;5.20;99.90
64396;DHT22;50717;53.360;6.290;2022-12-07T01:58:33;5.20;99.90
64396;DHT22;50717;53.360;6.290;2022-12-07T02:00:59;5.40;99.90
64396;DHT22;50717;53.360;6.290;2022-12-07T02:03:43;5.30;99.90
64396;DHT22;50717;53.360;6.290;2022-12-07T02:06:12;5.50;99.90
64396;DHT22;50717;53.360;6.290;2022-12-07T02:08:38;5.50;99.90
64396;DHT22;50717;53.360;6.290;2022-12-07T02:11:04;5.60;99.90
64396;DHT22;50717;53.360;6.290;2022-12-07T02:13:34;5.50;99.90
64396;DHT22;50717;53.360;6.290;2022-12-07T02:33:12;5.00;99.90
64396;DHT22;50717;53.360;6.290;2022-12-07T02:35:53;4.70;99.90
64396;DHT22;50717;53.360;6.290;2022-12-07T02:38:25;5.10;99.90
64396;DHT22;50717;53.360;6.290;2022-12-07T02:41:16;4.70;99.90
64396;DHT22;50717;53.360;6.290;2022-12-07T02:43:47;4.50;99.90
64396;DHT22;50717;53.360;6.290;2022-12-07T02:46:32;4.70;99.90
64396;DHT22;50717;53.360;6.290;2022-12-07T02:48:58;4.50;99.90
64396;DHT22;50717;53.360;6.290;2022-12-07T02:51:25;4.50;99.90
64396;DHT22;50717;53.360;6.290;2022-12-07T02:53:51;4.50;99.90
64396;DHT22;50717;53.360;6.290;2022-12-07T03:07:17;4.90;99.90
64396;DHT22;50717;53.360;6.290;2022-12-07T03:13:18;4.30;99.90
64396;DHT22;50717;53.360;6.290;2022-12-07T03:15:27;4.30;99.90
64396;DHT22;50717;53.360;6.290;2022-12-07T03:17:56;4.40;99.90
64396;DHT22;50717;53.360;6.290;2022-12-07T03:20:25;4.50;99.90
64396;DHT22;50717;53.360;6.290;2022-12-07T03:22:52;4.30;99.90
64396;DHT22;50717;53.360;6.290;2022-12-07T03:25:19;4.10;99.90
64396;DHT22;50717;53.360;6.290;2022-12-07T03:27:57;3.90;99.90
64396;DHT22;50717;53.360;6.290;2022-12-07T03:30:56;4.30;99.90
64396;DHT22;50717;53.360;6.290;2022-12-07T03:33:29;4.40;99.90
64396;DHT22;50717;53.360;6.290;2022-12-07T03:36:02;4.70;99.90
64396;DHT22;50717;53.360;6.290;2022-12-07T03:38:58;4.60;99.90
64396;DHT22;50717;53.360;6.290;2022-12-07T03:41:29;4.70;99.90
64396;DHT22;50717;53.360;6.290;2022-12-07T03:43:57;4.80;99.90
64396;DHT22;50717;53.360;6.290;2022-12-07T03:49:28;4.90;99.90
64396;DHT22;50717;53.360;6.290;2022-12-07T03:54:50;4.80;99.90
64396;DHT22;50717;53.360;6.290;2022-12-07T03:57:18;4.70;99.90
64396;DHT22;50717;53.360;6.290;2022-12-07T03:59:45;5.20;99.90
64396;DHT22;50717;53.360;6.290;2022-12-07T04:02:13;5.10;99.90
64396;DHT22;50717;53.360;6.290;2022-12-07T04:04:39;5.20;99.90
64396;DHT22;50717;53.360;6.290;2022-12-07T04:07:05;4.90;99.90
64396;DHT22;50717;53.360;6.290;2022-12-07T04:09:31;4.90;99.90
64396;DHT22;50717;53.360;6.290;2022-12-07T04:11:56;4.90;99.90
64396;DHT22;50717;53.360;6.290;2022-12-07T04:14:22;5.10;99.90
64396;DHT22;50717;53.360;6.290;2022-12-07T04:16:56;4.80;99.90
64396;DHT22;50717;53.360;6.290;2022-12-07T04:19:25;5.30;99.90
64396;DHT22;50717;53.360;6.290;2022-12-07T04:21:51;5.20;99.90
64396;DHT22;50717;53.360;6.290;2022-12-07T04:24:16;5.20;99.90
64396;DHT22;50717;53.360;6.290;2022-12-07T04:26:43;5.20;99.90
64396;DHT22;50717;53.360;6.290;2022-12-07T04:29:10;5.10;99.90
64396;DHT22;50717;53.360;6.290;2022-12-07T04:31:36;5.20;99.90
64396;DHT22;50717;53.360;6.290;2022-12-07T04:34:03;5.20;99.90
64396;DHT22;50717;53.360;6.290;2022-12-07T04:36:29;5.20;99.90
64396;DHT22;50717;53.360;6.290;2022-12-07T04:41:22;4.90;99.90
64396;DHT22;50717;53.360;6.290;2022-12-07T04:44:00;5.00;99.90
64396;DHT22;50717;53.360;6.290;2022-12-07T04:46:27;4.90;99.90
64396;DHT22;50717;53.360;6.290;2022-12-07T04:48:54;4.60;99.90
64396;DHT22;50717;53.360;6.290;2022-12-07T04:51:22;4.70;99.90
64396;DHT22;50717;53.360;6.290;2022-12-07T04:53:48;4.40;99.90
64396;DHT22;50717;53.360;6.290;2022-12-07T04:56:15;4.50;99.90
64396;DHT22;50717;53.360;6.290;2022-12-07T04:58:42;4.50;99.90
64396;DHT22;50717;53.360;6.290;2022-12-07T05:01:08;4.40;99.90
64396;DHT22;50717;53.360;6.290;2022-12-07T05:03:36;4.30;99.90
64396;DHT22;50717;53.360;6.290;2022-12-07T05:06:01;4.30;99.90
64396;DHT22;50717;53.360;6.290;2022-12-07T05:08:27;4.70;99.90
64396;DHT22;50717;53.360;6.290;2022-12-07T05:10:53;4.60;99.90
64396;DHT22;50717;53.360;6.290;2022-12-07T05:13:19;4.80;99.90
64396;DHT22;50717;53.360;6.290;2022-12-07T05:15:46;4.70;99.90
64396;DHT22;50717;53.360;6.290;2022-12-07T05:18:12;4.80;99.90
64396;DHT22;50717;53.360;6.290;2022-12-07T05:20:39;5.00;99.90
64396;DHT22;50717;53.360;6.290;2022-12-07T05:23:04;4.80;99.90
64396;DHT22;50717;53.360;6.290;2022-12-07T05:25:30;5.00;99.90
64396;DHT22;50717;53.360;6.290;2022-12-07T05:27:56;4.80;99.90
64396;DHT22;50717;53.360;6.290;2022-12-07T05:30:23;4.90;99.90
64396;DHT22;50717;53.360;6.290;2022-12-07T05:32:49;4.70;99.90
64396;DHT22;50717;53.360;6.290;2022-12-07T05:35:15;4.80;99.90
64396;DHT22;50717;53.360;6.290;2022-12-07T05:37:41;4.60;99.90
64396;DHT22;50717;53.360;6.290;2022-12-07T05:42:33;4.70;99.90
64396;DHT22;50717;53.360;6.290;2022-12-07T05:44:58;4.30;99.90
64396;DHT22;50717;53.360;6.290;2022-12-07T05:47:24;4.50;99.90
64396;DHT22;50717;53.360;6.290;2022-12-07T05:49:50;4.70;99.90
64396;DHT22;50717;53.360;6.290;2022-12-07T05:52:16;4.40;99.90
64396;DHT22;50717;53.360;6.290;2022-12-07T05:57:07;4.40;99.90
64396;DHT22;50717;53.360;6.290;2022-12-07T05:59:33;4.30;99.90
64396;DHT22;50717;53.360;6.290;2022-12-07T06:02:00;4.50;99.90
64396;DHT22;50717;53.360;6.290;2022-12-07T06:06:53;4.40;99.90
64396;DHT22;50717;53.360;6.290;2022-12-07T06:09:21;4.40;99.90
64396;DHT22;50717;53.360;6.290;2022-12-07T06:11:47;4.20;99.90
64396;DHT22;50717;53.360;6.290;2022-12-07T06:14:32;4.20;99.90
64396;DHT22;50717;53.360;6.290;2022-12-07T06:16:58;4.40;99.90
64396;DHT22;50717;53.360;6.290;2022-12-07T06:19:24;4.20;99.90
64396;DHT22;50717;53.360;6.290;2022-12-07T06:21:50;4.30;99.90
64396;DHT22;50717;53.360;6.290;2022-12-07T06:24:16;4.10;99.90
64396;DHT22;50717;53.360;6.290;2022-12-07T06:29:08;3.90;99.90
64396;DHT22;50717;53.360;6.290;2022-12-07T06:31:35;4.00;99.90
64396;DHT22;50717;53.360;6.290;2022-12-07T06:34:03;3.90;99.90
64396;DHT22;50717;53.360;6.290;2022-12-07T06:38:56;4.00;99.90
64396;DHT22;50717;53.360;6.290;2022-12-07T06:41:21;4.10;99.90
64396;DHT22;50717;53.360;6.290;2022-12-07T06:46:14;4.50;99.90
64396;DHT22;50717;53.360;6.290;2022-12-07T06:48:40;4.60;99.90
64396;DHT22;50717;53.360;6.290;2022-12-07T06:51:06;4.60;99.90
64396;DHT22;50717;53.360;6.290;2022-12-07T06:53:32;4.90;99.90
64396;DHT22;50717;53.360;6.290;2022-12-07T06:55:57;4.60;99.90
64396;DHT22;50717;53.360;6.290;2022-12-07T06:58:23;4.60;99.90
64396;DHT22;50717;53.360;6.290;2022-12-07T07:03:16;4.50;99.90
64396;DHT22;50717;53.360;6.290;2022-12-07T07:13:01;4.20;99.90
64396;DHT22;50717;53.360;6.290;2022-12-07T07:15:26;4.30;99.90
64396;DHT22;50717;53.360;6.290;2022-12-07T07:17:52;4.20;99.90
64396;DHT22;50717;53.360;6.290;2022-12-07T07:25:10;4.00;99.90
64396;DHT22;50717;53.360;6.290;2022-12-07T07:27:36;3.90;99.90
64396;DHT22;50717;53.360;6.290;2022-12-07T07:32:28;4.00;99.90
64396;DHT22;50717;53.360;6.290;2022-12-07T07:39:45;4.20;99.90
64396;DHT22;50717;53.360;6.290;2022-12-07T07:42:11;4.40;99.90
64396;DHT22;50717;53.360;6.290;2022-12-07T07:44:37;4.40;99.90
64396;DHT22;50717;53.360;6.290;2022-12-07T07:47:03;4.40;99.90
64396;DHT22;50717;53.360;6.290;2022-12-07T07:49:28;4.30;99.90
64396;DHT22;50717;53.360;6.290;2022-12-07T07:51:54;4.30;99.90
64396;DHT22;50717;53.360;6.290;2022-12-07T07:54:19;4.60;99.90
64396;DHT22;50717;53.360;6.290;2022-12-07T07:56:45;4.70;99.90
64396;DHT22;50717;53.360;6.290;2022-12-07T07:59:11;4.90;99.90
64396;DHT22;50717;53.360;6.290;2022-12-07T08:01:36;4.90;99.90
64396;DHT22;50717;53.360;6.290;2022-12-07T08:04:02;5.10;99.90
64396;DHT22;50717;53.360;6.290;2022-12-07T08:06:28;5.10;99.90
64396;DHT22;50717;53.360;6.290;2022-12-07T08:08:53;4.80;99.90
64396;DHT22;50717;53.360;6.290;2022-12-07T08:11:19;4.80;99.90
64396;DHT22;50717;53.360;6.290;2022-12-07T08:13:45;5.00;99.90
64396;DHT22;50717;53.360;6.290;2022-12-07T08:18:41;5.10;99.90
64396;DHT22;50717;53.360;6.290;2022-12-07T08:21:11;5.10;99.90
64396;DHT22;50717;53.360;6.290;2022-12-07T08:23:37;5.10;99.90
64396;DHT22;50717;53.360;6.290;2022-12-07T08:26:05;5.50;99.90
64396;DHT22;50717;53.360;6.290;2022-12-07T08:28:31;5.40;99.90
64396;DHT22;50717;53.360;6.290;2022-12-07T08:31:02;5.20;99.90
64396;DHT22;50717;53.360;6.290;2022-12-07T08:33:28;5.20;99.90
64396;DHT22;50717;53.360;6.290;2022-12-07T08:35:54;5.20;99.90
64396;DHT22;50717;53.360;6.290;2022-12-07T08:38:20;5.10;99.90
64396;DHT22;50717;53.360;6.290;2022-12-07T08:40:56;5.10;99.90
64396;DHT22;50717;53.360;6.290;2022-12-07T08:43:22;5.10;99.90
64396;DHT22;50717;53.360;6.290;2022-12-07T08:46:17;5.00;99.90
64396;DHT22;50717;53.360;6.290;2022-12-07T08:49:02;5.00;99.90
64396;DHT22;50717;53.360;6.290;2022-12-07T08:51:28;5.00;99.90
64396;DHT22;50717;53.360;6.290;2022-12-07T08:53:55;4.80;99.90
64396;DHT22;50717;53.360;6.290;2022-12-07T08:56:21;4.70;99.90
64396;DHT22;50717;53.360;6.290;2022-12-07T08:58:48;4.90;99.90
64396;DHT22;50717;53.360;6.290;2022-12-07T09:01:14;4.90;99.90
64396;DHT22;50717;53.360;6.290;2022-12-07T09:03:40;4.70;99.90
64396;DHT22;50717;53.360;6.290;2022-12-07T09:06:06;4.70;99.90
64396;DHT22;50717;53.360;6.290;2022-12-07T09:08:37;4.60;99.90
64396;DHT22;50717;53.360;6.290;2022-12-07T09:11:04;4.90;99.90
64396;DHT22;50717;53.360;6.290;2022-12-07T09:13:30;5.00;99.90
64396;DHT22;50717;53.360;6.290;2022-12-07T09:15:56;5.10;99.90
64396;DHT22;50717;53.360;6.290;2022-12-07T09:18:21;5.20;99.90
64396;DHT22;50717;53.360;6.290;2022-12-07T09:20:47;5.00;99.90
64396;DHT22;50717;53.360;6.290;2022-12-07T09:23:13;5.10;99.90
64396;DHT22;50717;53.360;6.290;2022-12-07T09:25:39;5.10;99.90
64396;DHT22;50717;53.360;6.290;2022-12-07T09:28:04;5.20;99.90
64396;DHT22;50717;53.360;6.290;2022-12-07T09:30:30;5.50;99.90
64396;DHT22;50717;53.360;6.290;2022-12-07T09:32:56;5.40;99.90
64396;DHT22;50717;53.360;6.290;2022-12-07T09:35:23;5.60;99.90
64396;DHT22;50717;53.360;6.290;2022-12-07T09:37:49;5.70;99.90
64396;DHT22;50717;53.360;6.290;2022-12-07T09:40:16;5.50;99.90
64396;DHT22;50717;53.360;6.290;2022-12-07T09:42:44;5.80;99.90
64396;DHT22;50717;53.360;6.290;2022-12-07T09:45:18;5.50;99.90
64396;DHT22;50717;53.360;6.290;2022-12-07T09:47:45;5.70;99.90
64396;DHT22;50717;53.360;6.290;2022-12-07T09:50:23;5.90;99.90
64396;DHT22;50717;53.360;6.290;2022-12-07T09:52:49;5.80;99.90
64396;DHT22;50717;53.360;6.290;2022-12-07T09:55:28;5.90;99.90
64396;DHT22;50717;53.360;6.290;2022-12-07T09:57:54;6.10;99.90
64396;DHT22;50717;53.360;6.290;2022-12-07T10:00:22;6.20;99.90
64396;DHT22;50717;53.360;6.290;2022-12-07T10:02:58;6.30;99.90
64396;DHT22;50717;53.360;6.290;2022-12-07T10:05:36;6.20;99.90
64396;DHT22;50717;53.360;6.290;2022-12-07T10:08:04;6.80;99.90
64396;DHT22;50717;53.360;6.290;2022-12-07T10:10:33;6.40;99.90
64396;DHT22;50717;53.360;6.290;2022-12-07T10:13:03;6.40;99.90
64396;DHT22;50717;53.360;6.290;2022-12-07T10:18:30;6.80;99.90
64396;DHT22;50717;53.360;6.290;2022-12-07T10:21:13;6.80;99.90
64396;DHT22;50717;53.360;6.290;2022-12-07T10:31:54;6.30;99.90
64396;DHT22;50717;53.360;6.290;2022-12-07T10:34:28;6.50;99.90
64396;DHT22;50717;53.360;6.290;2022-12-07T10:39:42;5.70;99.90
64396;DHT22;50717;53.360;6.290;2022-12-07T10:44:40;5.80;99.90
64396;DHT22;50717;53.360;6.290;2022-12-07T11:09:52;5.40;99.90
64396;DHT22;50717;53.360;6.290;2022-12-07T11:21:04;6.10;99.90
64396;DHT22;50717;53.360;6.290;2022-12-07T11:23:55;6.30;99.90
64396;DHT22;50717;53.360;6.290;2022-12-07T11:29:53;6.50;99.90
64396;DHT22;50717;53.360;6.290;2022-12-07T11:32:43;6.50;99.90
64396;DHT22;50717;53.360;6.290;2022-12-07T11:37:46;6.40;99.90
64396;DHT22;50717;53.360;6.290;2022-12-07T11:40:31;6.20;99.90
64396;DHT22;50717;53.360;6.290;2022-12-07T11:45:34;6.50;99.90
64396;DHT22;50717;53.360;6.290;2022-12-07T11:48:10;6.40;99.90
64396;DHT22;50717;53.360;6.290;2022-12-07T11:50:53;6.40;99.90
64396;DHT22;50717;53.360;6.290;2022-12-07T11:53:26;6.40;99.90
64396;DHT22;50717;53.360;6.290;2022-12-07T12:03:54;6.10;99.90
64396;DHT22;50717;53.360;6.290;2022-12-07T12:06:21;6.20;99.90
64396;DHT22;50717;53.360;6.290;2022-12-07T12:08:55;6.10;99.90
64396;DHT22;50717;53.360;6.290;2022-12-07T12:11:31;6.20;99.90
64396;DHT22;50717;53.360;6.290;2022-12-07T12:14:28;6.30;99.90
64396;DHT22;50717;53.360;6.290;2022-12-07T12:20:15;6.30;99.90
64396;DHT22;50717;53.360;6.290;2022-12-07T12:22:58;5.70;99.90
64396;DHT22;50717;53.360;6.290;2022-12-07T12:25:53;6.20;99.90
64396;DHT22;50717;53.360;6.290;2022-12-07T12:33:46;5.90;99.90
64396;DHT22;50717;53.360;6.290;2022-12-07T12:46:49;5.90;99.90
64396;DHT22;50717;53.360;6.290;2022-12-07T12:51:58;5.90;99.90
64396;DHT22;50717;53.360;6.290;2022-12-07T12:54:26;6.00;99.90
64396;DHT22;50717;53.360;6.290;2022-12-07T12:57:03;6.40;99.90
64396;DHT22;50717;53.360;6.290;2022-12-07T12:59:56;6.30;99.90
64396;DHT22;50717;53.360;6.290;2022-12-07T13:02:38;6.10;99.90
64396;DHT22;50717;53.360;6.290;2022-12-07T13:26:23;4.80;99.90
64396;DHT22;50717;53.360;6.290;2022-12-07T13:31:56;4.90;99.90
64396;DHT22;50717;53.360;6.290;2022-12-07T13:37:02;5.00;99.90
64396;DHT22;50717;53.360;6.290;2022-12-07T13:39:29;4.90;99.90
64396;DHT22;50717;53.360;6.290;2022-12-07T13:44:34;5.10;99.90
64396;DHT22;50717;53.360;6.290;2022-12-07T13:47:17;4.70;99.90
64396;DHT22;50717;53.360;6.290;2022-12-07T13:49:55;4.80;99.90
64396;DHT22;50717;53.360;6.290;2022-12-07T13:52:28;4.70;99.90
64396;DHT22;50717;53.360;6.290;2022-12-07T13:57:29;4.70;99.90
64396;DHT22;50717;53.360;6.290;2022-12-07T14:00:05;4.50;99.90
64396;DHT22;50717;53.360;6.290;2022-12-07T14:02:34;4.80;99.90
64396;DHT22;50717;53.360;6.290;2022-12-07T14:10:03;4.80;99.90
64396;DHT22;50717;53.360;6.290;2022-12-07T14:12:30;4.80;99.90
64396;DHT22;50717;53.360;6.290;2022-12-07T14:14:57;4.80;99.90
64396;DHT22;50717;53.360;6.290;2022-12-07T14:17:25;4.60;99.90
64396;DHT22;50717;53.360;6.290;2022-12-07T14:19:54;4.20;99.90
64396;DHT22;50717;53.360;6.290;2022-12-07T14:22:26;4.10;99.90
64396;DHT22;50717;53.360;6.290;2022-12-07T14:25:14;4.20;99.90
64396;DHT22;50717;53.360;6.290;2022-12-07T14:27:52;4.10;99.90
64396;DHT22;50717;53.360;6.290;2022-12-07T14:30:21;4.30;99.90
64396;DHT22;50717;53.360;6.290;2022-12-07T14:32:59;3.90;99.90
64396;DHT22;50717;53.360;6.290;2022-12-07T14:37:52;3.70;99.90
64396;DHT22;50717;53.360;6.290;2022-12-07T14:40:26;3.70;99.90
64396;DHT22;50717;53.360;6.290;2022-12-07T14:45:51;3.70;99.90
64396;DHT22;50717;53.360;6.290;2022-12-07T14:55:45;3.40;99.90
64396;DHT22;50717;53.360;6.290;2022-12-07T14:58:13;3.20;99.90
64396;DHT22;50717;53.360;6.290;2022-12-07T15:00:39;3.30;99.90
64396;DHT22;50717;53.360;6.290;2022-12-07T15:03:05;3.20;99.90
64396;DHT22;50717;53.360;6.290;2022-12-07T15:05:30;3.40;99.90
64396;DHT22;50717;53.360;6.290;2022-12-07T15:07:56;3.20;99.90
64396;DHT22;50717;53.360;6.290;2022-12-07T15:10:24;3.30;99.90
64396;DHT22;50717;53.360;6.290;2022-12-07T15:12:55;3.30;99.90
64396;DHT22;50717;53.360;6.290;2022-12-07T15:15:20;3.60;99.90
64396;DHT22;50717;53.360;6.290;2022-12-07T15:17:46;3.10;99.90
64396;DHT22;50717;53.360;6.290;2022-12-07T15:20:13;3.30;99.90
64396;DHT22;50717;53.360;6.290;2022-12-07T15:22:40;3.10;99.90
64396;DHT22;50717;53.360;6.290;2022-12-07T15:27:33;3.40;99.90
64396;DHT22;50717;53.360;6.290;2022-12-07T15:29:58;3.60;99.90
64396;DHT22;50717;53.360;6.290;2022-12-07T15:37:16;3.50;99.90
64396;DHT22;50717;53.360;6.290;2022-12-07T15:39:42;3.50;99.90
64396;DHT22;50717;53.360;6.290;2022-12-07T15:42:08;3.60;99.90
64396;DHT22;50717;53.360;6.290;2022-12-07T15:44:33;3.60;99.90
64396;DHT22;50717;53.360;6.290;2022-12-07T15:49:44;3.70;99.90
64396;DHT22;50717;53.360;6.290;2022-12-07T15:52:09;3.70;99.90
64396;DHT22;50717;53.360;6.290;2022-12-07T15:54:35;3.90;99.90
64396;DHT22;50717;53.360;6.290;2022-12-07T15:57:01;4.00;99.90
64396;DHT22;50717;53.360;6.290;2022-12-07T15:59:28;4.00;99.90
64396;DHT22;50717;53.360;6.290;2022-12-07T16:01:54;4.00;99.90
64396;DHT22;50717;53.360;6.290;2022-12-07T16:04:20;4.00;99.90
64396;DHT22;50717;53.360;6.290;2022-12-07T16:06:45;4.00;99.90
64396;DHT22;50717;53.360;6.290;2022-12-07T16:09:12;3.80;99.90
64396;DHT22;50717;53.360;6.290;2022-12-07T16:11:37;3.80;99.90
64396;DHT22;50717;53.360;6.290;2022-12-07T16:14:03;3.80;99.90
64396;DHT22;50717;53.360;6.290;2022-12-07T16:16:29;3.80;99.90
64396;DHT22;50717;53.360;6.290;2022-12-07T16:18:56;3.70;99.90
64396;DHT22;50717;53.360;6.290;2022-12-07T16:21:22;3.80;99.90
64396;DHT22;50717;53.360;6.290;2022-12-07T16:23:48;3.80;99.90
64396;DHT22;50717;53.360;6.290;2022-12-07T16:26:17;3.50;99.90
64396;DHT22;50717;53.360;6.290;2022-12-07T16:28:44;3.60;99.90
64396;DHT22;50717;53.360;6.290;2022-12-07T16:31:14;3.50;99.90
64396;DHT22;50717;53.360;6.290;2022-12-07T16:33:41;3.60;99.90
64396;DHT22;50717;53.360;6.290;2022-12-07T16:36:08;3.60;99.90
64396;DHT22;50717;53.360;6.290;2022-12-07T16:38:35;3.70;99.90
64396;DHT22;50717;53.360;6.290;2022-12-07T16:43:28;3.30;99.90
64396;DHT22;50717;53.360;6.290;2022-12-07T16:45:53;3.20;99.90
64396;DHT22;50717;53.360;6.290;2022-12-07T16:48:19;3.60;99.90
64396;DHT22;50717;53.360;6.290;2022-12-07T16:53:13;3.80;99.90
64396;DHT22;50717;53.360;6.290;2022-12-07T16:55:44;3.60;99.90
64396;DHT22;50717;53.360;6.290;2022-12-07T17:00:37;3.80;99.90
64396;DHT22;50717;53.360;6.290;2022-12-07T17:03:03;3.60;99.90
64396;DHT22;50717;53.360;6.290;2022-12-07T17:05:29;3.70;99.90
64396;DHT22;50717;53.360;6.290;2022-12-07T17:07:55;3.80;99.90
64396;DHT22;50717;53.360;6.290;2022-12-07T17:10:22;4.10;99.90
64396;DHT22;50717;53.360;6.290;2022-12-07T17:12:49;3.90;99.90
64396;DHT22;50717;53.360;6.290;2022-12-07T17:15:15;4.10;99.90
64396;DHT22;50717;53.360;6.290;2022-12-07T17:22:45;3.90;99.90
64396;DHT22;50717;53.360;6.290;2022-12-07T17:25:11;4.20;99.90
64396;DHT22;50717;53.360;6.290;2022-12-07T17:27:37;4.00;99.90
64396;DHT22;50717;53.360;6.290;2022-12-07T17:30:04;4.30;99.90
64396;DHT22;50717;53.360;6.290;2022-12-07T17:32:30;4.00;99.90
64396;DHT22;50717;53.360;6.290;2022-12-07T17:34:56;3.70;99.90
64396;DHT22;50717;53.360;6.290;2022-12-07T17:37:21;4.10;99.90
64396;DHT22;50717;53.360;6.290;2022-12-07T17:39:47;3.80;99.90
64396;DHT22;50717;53.360;6.290;2022-12-07T17:42:13;3.80;99.90
64396;DHT22;50717;53.360;6.290;2022-12-07T17:49:49;3.50;99.90
64396;DHT22;50717;53.360;6.290;2022-12-07T17:55:00;3.80;99.90
64396;DHT22;50717;53.360;6.290;2022-12-07T17:57:25;3.40;99.90
64396;DHT22;50717;53.360;6.290;2022-12-07T17:59:51;3.50;99.90
64396;DHT22;50717;53.360;6.290;2022-12-07T18:02:17;3.50;99.90
64396;DHT22;50717;53.360;6.290;2022-12-07T18:04:43;3.10;99.90
64396;DHT22;50717;53.360;6.290;2022-12-07T18:07:10;3.60;99.90
64396;DHT22;50717;53.360;6.290;2022-12-07T18:09:35;3.60;99.90
64396;DHT22;50717;53.360;6.290;2022-12-07T18:12:01;3.40;99.90
64396;DHT22;50717;53.360;6.290;2022-12-07T18:14:27;3.40;99.90
64396;DHT22;50717;53.360;6.290;2022-12-07T18:16:53;3.30;99.90
64396;DHT22;50717;53.360;6.290;2022-12-07T18:21:45;3.50;99.90
64396;DHT22;50717;53.360;6.290;2022-12-07T18:24:13;3.60;99.90
64396;DHT22;50717;53.360;6.290;2022-12-07T18:26:40;3.50;99.90
64396;DHT22;50717;53.360;6.290;2022-12-07T18:29:07;3.50;99.90
64396;DHT22;50717;53.360;6.290;2022-12-07T18:31:36;3.80;99.90
64396;DHT22;50717;53.360;6.290;2022-12-07T18:36:29;3.60;99.90
64396;DHT22;50717;53.360;6.290;2022-12-07T18:41:21;3.80;99.90
64396;DHT22;50717;53.360;6.290;2022-12-07T18:43:46;3.90;99.90
64396;DHT22;50717;53.360;6.290;2022-12-07T18:46:17;3.70;99.90
64396;DHT22;50717;53.360;6.290;2022-12-07T18:51:12;3.80;99.90
64396;DHT22;50717;53.360;6.290;2022-12-07T18:53:38;3.70;99.90
64396;DHT22;50717;53.360;6.290;2022-12-07T18:56:06;3.90;99.90
64396;DHT22;50717;53.360;6.290;2022-12-07T18:58:33;4.00;99.90
64396;DHT22;50717;53.360;6.290;2022-12-07T19:03:26;4.10;99.90
64396;DHT22;50717;53.360;6.290;2022-12-07T19:05:51;3.80;99.90
64396;DHT22;50717;53.360;6.290;2022-12-07T19:10:44;3.60;99.90
64396;DHT22;50717;53.360;6.290;2022-12-07T19:13:10;3.60;99.90
64396;DHT22;50717;53.360;6.290;2022-12-07T19:15:39;3.80;99.90
64396;DHT22;50717;53.360;6.290;2022-12-07T19:18:05;3.40;99.90
64396;DHT22;50717;53.360;6.290;2022-12-07T19:22:57;3.40;99.90
64396;DHT22;50717;53.360;6.290;2022-12-07T19:25:23;3.20;99.90
64396;DHT22;50717;53.360;6.290;2022-12-07T19:30:14;3.20;99.90
64396;DHT22;50717;53.360;6.290;2022-12-07T19:32:40;3.30;99.90
64396;DHT22;50717;53.360;6.290;2022-12-07T19:37:32;3.00;99.90
64396;DHT22;50717;53.360;6.290;2022-12-07T19:39:58;3.20;99.90
64396;DHT22;50717;53.360;6.290;2022-12-07T19:42:24;3.00;99.90
64396;DHT22;50717;53.360;6.290;2022-12-07T19:44:49;3.00;99.90
64396;DHT22;50717;53.360;6.290;2022-12-07T19:47:16;3.10;99.90
64396;DHT22;50717;53.360;6.290;2022-12-07T19:49:43;2.90;99.90
64396;DHT22;50717;53.360;6.290;2022-12-07T19:52:10;3.20;99.90
64396;DHT22;50717;53.360;6.290;2022-12-07T19:54:37;2.80;99.90
64396;DHT22;50717;53.360;6.290;2022-12-07T20:04:28;2.80;99.90
64396;DHT22;50717;53.360;6.290;2022-12-07T20:06:57;3.10;99.90
64396;DHT22;50717;53.360;6.290;2022-12-07T20:09:23;2.70;99.90
64396;DHT22;50717;53.360;6.290;2022-12-07T20:11:49;3.00;99.90
64396;DHT22;50717;53.360;6.290;2022-12-07T20:14:34;2.90;99.90
64396;DHT22;50717;53.360;6.290;2022-12-07T20:16:59;2.70;99.90
64396;DHT22;50717;53.360;6.290;2022-12-07T20:19:25;3.00;99.90
64396;DHT22;50717;53.360;6.290;2022-12-07T20:21:51;2.90;99.90
64396;DHT22;50717;53.360;6.290;2022-12-07T20:26:45;2.90;99.90
64396;DHT22;50717;53.360;6.290;2022-12-07T20:29:14;2.80;99.90
64396;DHT22;50717;53.360;6.290;2022-12-07T20:34:07;3.00;99.90